Marianna, FL

1:58 PM CDT on September 04, 2015 (GMT -0500)
Marianna Municipal | | Change Station
CLOSE
Current Station
Airport
Location: Marianna,
Elevation: 112 ft
Nearby Weather Stations

Elev 112 ft 30.84 °N, 85.18 °W | Updated 5 minutes ago

Scattered Clouds
Scattered Clouds
92 °F
Feels Like 100 °F
N
5
Wind Variable Wind from Variable

Today
High -- | Low -- °F
--% Chance of Precip.
Yesterday
High -- | Low -- °F
Precip. -- in
6:18 AM 7:00 PM
Waning Gibbous, 57% visible
Pressure 29.95 in
Visibility 10.0 miles
Clouds Scattered Clouds 4600 ft
Heat Index 100 °F
Dew Point 72 °F
Humidity 52%
Rainfall 0.00 in
Snow Depth Not available.
UV 8 out of 12
Pollen 7.20 out of 12
Air Quality Not available.
Flu Activity Not available.
METAR KMAI 041853Z AUTO VRB04KT 10SM SCT046 33/22 A2995 RMK AO2 SLP140 T03330222
Pressure 29.95 in
Visibility 10.0 miles
Clouds Scattered Clouds 4600 ft
Heat Index 100 °F
Dew Point 72 °F
Humidity 52%
Rainfall 0.00 in
Snow Depth Not available.
UV 8 out of 12
Pollen 7.20 out of 12
Air Quality Not available.
Flu Activity Not available.
METAR KMAI 041853Z AUTO VRB04KT 10SM SCT046 33/22 A2995 RMK AO2 SLP140 T03330222

10-Day Weather Forecast

×

Almanac

Astronomy

Sep. 04, 2015 Rise Set
Actual Time
Civil Twilight
Nautical Twilight
Astronomical Twilight
Moon
Length of Visible Light
Length of Day
Tomorrow will be .
, % of the Moon is Illuminated

Today's Extremes

State Highs State Lows

Community

WunderPhotos

Upload Photos

1,852,262 photos uploaded!

WunderBlogs® & News

Nearby

Air Quality

  Air Quality AQ Index Pollutant
Not available.

Snow Depth

Station Depth Elevation

Earthquake Activity

City Distance Mag. Time & Date
Minimum magnitude displayed is 2.5.

Coastal Water Temperatures

Place Temperature

Stations

Nearby Weather Stations

Station Location Temp. Windchill Dew Point Humidity Wind Precip. Elev Updated Type